createdAt,value
2023-07-03T00:04:39.656Z,101767.22
2023-07-03T00:09:42.939Z,101761.16
2023-07-03T00:14:46.588Z,101748.56
2023-07-03T00:19:48.522Z,101741.63
2023-07-03T00:24:50.616Z,101731.59
2023-07-03T00:29:52.728Z,101723.53
2023-07-03T00:34:55.231Z,101726.22
2023-07-03T00:39:57.284Z,101729.03
2023-07-03T00:44:59.312Z,101740.66
2023-07-03T00:50:01.484Z,101735.28
2023-07-03T00:55:03.739Z,101729.03
2023-07-03T01:00:06.491Z,101719.28
2023-07-03T01:05:15.799Z,101727.34
2023-07-03T01:10:25.386Z,101739.94
2023-07-03T01:15:31.464Z,101747.88
2023-07-03T01:20:52.555Z,101742.63
2023-07-03T01:25:58.677Z,101738.94
2023-07-03T01:31:02.064Z,101745.19
2023-07-03T01:36:04.864Z,101747.00
2023-07-03T01:41:07.340Z,101742.50
2023-07-03T01:46:09.949Z,101735.28
2023-07-03T01:51:20.395Z,101750.56
2023-07-03T01:56:33.802Z,101749.72
2023-07-03T02:02:19.654Z,101743.47
2023-07-03T02:07:22.416Z,101741.63
2023-07-03T02:12:24.561Z,101736.25
2023-07-03T02:17:28.122Z,101723.81
2023-07-03T02:22:30.395Z,101725.66
2023-07-03T02:27:32.455Z,101740.94
2023-07-03T02:32:39.679Z,101725.66
2023-07-03T02:37:41.797Z,101724.81
2023-07-03T02:42:43.902Z,101714.03
2023-07-03T02:47:45.962Z,101711.34
2023-07-03T02:52:50.812Z,101702.47
2023-07-03T02:57:53.347Z,101709.69
2023-07-03T03:02:55.886Z,101704.31
2023-07-03T03:07:58.300Z,101709.69
2023-07-03T03:13:00.446Z,101703.47
2023-07-03T03:18:05.602Z,101699.09
2023-07-03T03:23:07.853Z,101692.84
2023-07-03T03:28:10.692Z,101690.03
2023-07-03T03:33:14.533Z,101690.03
2023-07-03T03:38:16.760Z,101696.41
2023-07-03T03:43:18.998Z,101698.09
2023-07-03T03:48:21.520Z,101701.78
2023-07-03T03:53:24.370Z,101702.63
2023-07-03T03:58:26.559Z,101706.28
2023-07-03T04:03:29.159Z,101699.09
2023-07-03T04:08:31.275Z,101695.53
2023-07-03T04:13:33.471Z,101699.94
2023-07-03T04:18:35.730Z,101699.94
2023-07-03T04:23:37.808Z,101704.47
2023-07-03T04:28:39.972Z,101703.47
2023-07-03T04:33:43.799Z,101709.97
2023-07-03T04:38:45.900Z,101708.13
2023-07-03T04:43:50.343Z,101718.91
2023-07-03T04:49:00.816Z,101718.91
2023-07-03T04:54:04.085Z,101722.44
2023-07-03T04:59:06.124Z,101728.09
2023-07-03T05:04:08.433Z,101727.94
2023-07-03T05:09:10.599Z,101730.50
2023-07-03T05:14:12.753Z,101729.13
2023-07-03T05:19:14.881Z,101741.41
2023-07-03T05:24:17.070Z,101748.47
2023-07-03T05:29:19.289Z,101753.00
2023-07-03T05:34:21.525Z,101752.28
2023-07-03T05:39:23.946Z,101760.34
2023-07-03T05:44:26.666Z,101767.44
2023-07-03T05:49:28.970Z,101763.91
2023-07-03T05:54:31.219Z,101769.28
2023-07-03T05:59:34.601Z,101768.41
2023-07-03T06:04:36.925Z,101765.72
2023-07-03T06:09:39.348Z,101766.75
2023-07-03T06:14:41.535Z,101773.81
2023-07-03T06:19:43.621Z,101768.41
2023-07-03T06:24:47.004Z,101776.50
2023-07-03T06:29:49.134Z,101784.72
2023-07-03T06:34:51.287Z,101789.94
2023-07-03T06:39:53.609Z,101787.25
2023-07-03T06:44:55.800Z,101798.16
2023-07-03T06:49:57.952Z,101805.25
2023-07-03T06:55:00.113Z,101797.19
2023-07-03T07:00:02.727Z,101814.13
2023-07-03T07:05:05.164Z,101807.09
2023-07-03T07:10:07.852Z,101810.63
2023-07-03T07:15:10.315Z,101809.22
2023-07-03T07:20:13.079Z,101809.59
2023-07-03T07:25:15.396Z,101804.41
2023-07-03T07:30:17.587Z,101807.09
2023-07-03T07:35:20.762Z,101808.94
2023-07-03T07:40:22.939Z,101814.31
2023-07-03T07:45:25.063Z,101807.94
2023-07-03T07:50:29.196Z,101808.06
2023-07-03T07:55:32.649Z,101798.84
2023-07-03T08:00:35.991Z,101810.63
2023-07-03T08:05:38.614Z,101812.47
2023-07-03T08:10:42.236Z,101808.06
2023-07-03T08:15:46.951Z,101817.97
2023-07-03T08:20:50.934Z,101817.00
2023-07-03T08:25:55.659Z,101812.47
2023-07-03T08:30:59.465Z,101826.75
2023-07-03T08:41:06.691Z,101835.81
2023-07-03T08:46:13.129Z,101827.75
2023-07-03T08:51:19.872Z,101819.69
2023-07-03T08:56:27.962Z,101820.53
2023-07-03T09:01:59.291Z,101819.69
2023-07-03T09:07:11.318Z,101825.06
2023-07-03T09:12:36.110Z,101836.81
2023-07-03T09:17:40.188Z,101851.78
2023-07-03T09:22:48.623Z,101855.47
2023-07-03T09:27:54.848Z,101859.84
2023-07-03T09:32:57.320Z,101864.41
2023-07-03T09:38:00.781Z,101854.63
2023-07-03T09:43:04.453Z,101860.88
2023-07-03T09:48:17.578Z,101850.97
2023-07-03T09:53:25.809Z,101858.16
2023-07-03T09:58:29.802Z,101861.72
2023-07-03T10:03:35.193Z,101859.84
2023-07-03T10:08:43.187Z,101864.41
2023-07-03T10:13:49.763Z,101869.59
2023-07-03T10:18:56.597Z,101865.22
2023-07-03T10:23:59.998Z,101856.34
2023-07-03T10:29:23.102Z,101866.91
2023-07-03T10:35:03.560Z,101862.69
2023-07-03T10:40:38.499Z,101864.53
2023-07-03T10:45:40.721Z,101872.28
2023-07-03T10:51:13.753Z,101870.75
2023-07-03T10:56:37.238Z,101875.28
2023-07-03T11:01:50.886Z,101860.00
2023-07-03T11:07:24.564Z,101868.94
2023-07-03T11:12:46.833Z,101860.88
2023-07-03T11:23:40.309Z,101865.44
2023-07-03T11:28:47.482Z,101859.47
2023-07-03T11:44:34.381Z,101854.63
2023-07-03T11:49:44.029Z,101859.69
2023-07-03T11:54:46.340Z,101860.94
2023-07-03T11:59:48.434Z,101871.63
2023-07-03T12:04:51.990Z,101862.25
2023-07-03T12:09:54.104Z,101865.53
2023-07-03T12:15:03.375Z,101866.84
2023-07-03T12:20:12.693Z,101856.22
2023-07-03T12:25:29.609Z,101868.97
2023-07-03T12:30:32.267Z,101861.78
2023-07-03T12:35:37.124Z,101860.75
2023-07-03T12:40:43.590Z,101846.47
2023-07-03T12:45:53.096Z,101842.09
2023-07-03T12:50:59.242Z,101839.41
2023-07-03T12:56:07.658Z,101836.53
2023-07-03T13:01:10.512Z,101838.56
2023-07-03T13:06:22.281Z,101842.09
2023-07-03T13:11:46.660Z,101832.31
2023-07-03T13:16:57.134Z,101838.56
2023-07-03T13:22:00.807Z,101836.53
2023-07-03T13:27:03.274Z,101834.03
2023-07-03T13:32:20.082Z,101832.19
2023-07-03T13:37:28.161Z,101815.88
2023-07-03T13:42:31.502Z,101820.25
2023-07-03T13:47:33.688Z,101823.94
2023-07-03T13:52:38.325Z,101820.25
2023-07-03T13:57:40.443Z,101824.78
2023-07-03T14:02:48.646Z,101825.50
2023-07-03T14:07:51.344Z,101815.59
2023-07-03T14:12:53.994Z,101816.44
2023-07-03T14:17:56.319Z,101811.06
2023-07-03T14:22:58.847Z,101813.75
2023-07-03T14:28:00.969Z,101820.81
2023-07-03T14:33:03.402Z,101824.38
2023-07-03T14:38:06.449Z,101809.22
2023-07-03T14:43:10.569Z,101820.66
2023-07-03T14:48:12.880Z,101823.34
2023-07-03T14:53:15.662Z,101811.06
2023-07-03T14:58:17.701Z,101808.91
2023-07-03T15:03:20.138Z,101802.66
2023-07-03T15:08:22.615Z,101800.84
2023-07-03T15:13:24.759Z,101803.38
2023-07-03T15:18:27.283Z,101799.84
2023-07-03T15:23:29.351Z,101799.97
2023-07-03T15:28:31.370Z,101790.22
2023-07-03T15:33:34.560Z,101780.31
2023-07-03T15:38:36.921Z,101777.63
2023-07-03T15:43:39.150Z,101770.41
2023-07-03T15:48:42.013Z,101768.56
2023-07-03T15:53:44.347Z,101781.16
2023-07-03T15:58:51.667Z,101779.31
2023-07-03T16:03:56.866Z,101782.00
2023-07-03T16:09:00.623Z,101794.59
2023-07-03T16:14:03.823Z,101803.22
2023-07-03T16:19:05.819Z,101812.28
2023-07-03T16:24:08.452Z,101823.63
2023-07-03T16:29:10.529Z,101831.69
2023-07-03T16:34:12.599Z,101838.78
2023-07-03T16:39:14.706Z,101839.47
2023-07-03T16:44:16.834Z,101847.22
2023-07-03T16:49:19.037Z,101850.47
2023-07-03T16:54:21.287Z,101868.16
2023-07-03T16:59:23.390Z,101858.41
2023-07-03T17:04:25.452Z,101862.63
2023-07-03T17:09:27.488Z,101846.63
2023-07-03T17:14:30.333Z,101838.56
2023-07-03T17:19:33.954Z,101841.25
2023-07-03T17:24:36.099Z,101835.88
2023-07-03T17:29:38.393Z,101851.16
2023-07-03T17:34:40.745Z,101854.69
2023-07-03T17:39:42.827Z,101854.56
2023-07-03T17:44:44.800Z,101851.00
2023-07-03T17:49:47.210Z,101846.34
2023-07-03T17:55:03.317Z,101841.66
2023-07-03T18:00:25.432Z,101835.25
2023-07-03T18:05:51.733Z,101836.41
2023-07-03T18:11:00.083Z,101811.50
2023-07-03T18:16:02.710Z,101792.53
2023-07-03T18:21:05.411Z,101781.91
2023-07-03T18:26:07.552Z,101772.31
2023-07-03T18:31:09.706Z,101770.63
2023-07-03T18:36:11.870Z,101759.16
2023-07-03T18:41:16.908Z,101769.53
2023-07-03T18:46:19.152Z,101788.88
2023-07-03T18:51:24.424Z,101790.59
2023-07-03T18:56:26.663Z,101789.88
2023-07-03T19:01:28.858Z,101808.72
2023-07-03T19:06:31.622Z,101785.53
2023-07-03T19:11:33.723Z,101791.06
2023-07-03T19:16:35.981Z,101790.19
2023-07-03T19:21:38.043Z,101791.06
2023-07-03T19:26:40.119Z,101806.59
2023-07-03T19:31:42.337Z,101806.97
2023-07-03T19:36:44.739Z,101780.44
2023-07-03T19:41:46.778Z,101768.31
2023-07-03T19:46:48.899Z,101818.72
2023-07-03T19:51:51.005Z,101794.97
2023-07-03T19:56:53.198Z,101827.41
2023-07-03T20:01:55.363Z,101836.03
2023-07-03T20:06:57.442Z,101857.72
2023-07-03T20:11:59.448Z,101856.84
2023-07-03T20:17:01.662Z,101876.53
2023-07-03T20:22:03.980Z,101874.13
2023-07-03T20:27:06.563Z,101860.25
2023-07-03T20:32:21.477Z,101859.41
2023-07-03T20:37:23.593Z,101862.25
2023-07-03T20:42:26.208Z,101833.34
2023-07-03T20:47:32.108Z,101842.41
2023-07-03T20:52:36.748Z,101861.09
2023-07-03T20:57:39.389Z,101864.00
2023-07-03T21:02:42.436Z,101859.31
2023-07-03T21:07:44.388Z,101844.50
2023-07-03T21:12:46.742Z,101828.72
2023-07-03T21:17:48.883Z,101819.34
2023-07-03T21:22:51.033Z,101827.59
2023-07-03T21:27:53.110Z,101835.66
2023-07-03T21:32:55.154Z,101824.91
2023-07-03T21:37:57.158Z,101797.81
2023-07-03T21:42:59.654Z,101780.16
2023-07-03T21:48:01.779Z,101765.72
2023-07-03T21:53:03.947Z,101766.22
2023-07-03T21:58:06.048Z,101741.16
2023-07-03T22:03:08.634Z,101739.84
2023-07-03T22:08:10.756Z,101745.69
2023-07-03T22:13:12.936Z,101749.09
2023-07-03T22:18:16.214Z,101751.94
2023-07-03T22:23:31.310Z,101745.69
2023-07-03T22:28:34.363Z,101754.63
2023-07-03T22:33:36.622Z,101774.44
2023-07-03T22:38:39.080Z,101776.38
2023-07-03T22:43:41.167Z,101780.78
2023-07-03T22:48:43.529Z,101794.22
2023-07-03T22:53:49.506Z,101777.91
2023-07-03T22:58:51.583Z,101779.78
2023-07-03T23:03:53.704Z,101781.75
2023-07-03T23:08:56.275Z,101786.44
2023-07-03T23:14:01.045Z,101783.59
2023-07-03T23:19:03.157Z,101795.69
2023-07-03T23:24:05.492Z,101769.63
2023-07-03T23:29:09.020Z,101773.44
2023-07-03T23:34:12.023Z,101783.22
2023-07-03T23:39:15.411Z,101780.53
2023-07-03T23:44:17.360Z,101788.22
2023-07-03T23:49:19.404Z,101781.28
2023-07-03T23:54:25.238Z,101767.53
2023-07-03T23:59:28.199Z,101758.78
